sensor_id;sensor_type;location;lat;lon;timestamp;P1;durP1;ratioP1;P2;durP2;ratioP2
64140;SDS011;50436;50.618;7.932;2024-03-06T00:00:02;0.10;;;0.10;;
64140;SDS011;50436;50.618;7.932;2024-03-06T00:02:50;0.10;;;0.10;;
64140;SDS011;50436;50.618;7.932;2024-03-06T00:05:35;0.10;;;0.10;;
64140;SDS011;50436;50.618;7.932;2024-03-06T00:08:21;0.10;;;0.10;;
64140;SDS011;50436;50.618;7.932;2024-03-06T00:11:07;0.10;;;0.10;;
64140;SDS011;50436;50.618;7.932;2024-03-06T00:13:53;0.10;;;0.10;;
64140;SDS011;50436;50.618;7.932;2024-03-06T00:16:39;0.13;;;0.13;;
64140;SDS011;50436;50.618;7.932;2024-03-06T00:19:25;0.20;;;0.20;;
64140;SDS011;50436;50.618;7.932;2024-03-06T00:22:11;0.10;;;0.10;;
64140;SDS011;50436;50.618;7.932;2024-03-06T00:24:57;0.20;;;0.20;;
64140;SDS011;50436;50.618;7.932;2024-03-06T00:27:43;0.20;;;0.20;;
64140;SDS011;50436;50.618;7.932;2024-03-06T00:30:29;0.10;;;0.10;;
64140;SDS011;50436;50.618;7.932;2024-03-06T00:33:14;0.10;;;0.10;;
64140;SDS011;50436;50.618;7.932;2024-03-06T00:36:00;0.10;;;0.10;;
64140;SDS011;50436;50.618;7.932;2024-03-06T00:38:47;0.10;;;0.10;;
64140;SDS011;50436;50.618;7.932;2024-03-06T00:41:34;0.10;;;0.10;;
64140;SDS011;50436;50.618;7.932;2024-03-06T00:44:20;0.10;;;0.10;;
64140;SDS011;50436;50.618;7.932;2024-03-06T00:47:08;0.10;;;0.10;;
64140;SDS011;50436;50.618;7.932;2024-03-06T00:49:54;0.10;;;0.10;;
64140;SDS011;50436;50.618;7.932;2024-03-06T00:52:40;0.10;;;0.10;;
64140;SDS011;50436;50.618;7.932;2024-03-06T00:55:26;0.10;;;0.10;;
64140;SDS011;50436;50.618;7.932;2024-03-06T00:58:12;0.10;;;0.10;;
64140;SDS011;50436;50.618;7.932;2024-03-06T01:00:58;0.10;;;0.10;;
64140;SDS011;50436;50.618;7.932;2024-03-06T01:03:44;0.10;;;0.10;;
64140;SDS011;50436;50.618;7.932;2024-03-06T01:06:30;0.10;;;0.10;;
64140;SDS011;50436;50.618;7.932;2024-03-06T01:09:16;0.10;;;0.10;;
64140;SDS011;50436;50.618;7.932;2024-03-06T01:12:02;0.10;;;0.10;;
64140;SDS011;50436;50.618;7.932;2024-03-06T01:14:48;0.10;;;0.10;;
64140;SDS011;50436;50.618;7.932;2024-03-06T01:17:34;0.20;;;0.20;;
64140;SDS011;50436;50.618;7.932;2024-03-06T01:20:20;0.20;;;0.20;;
64140;SDS011;50436;50.618;7.932;2024-03-06T01:23:06;0.17;;;0.17;;
64140;SDS011;50436;50.618;7.932;2024-03-06T01:25:52;0.10;;;0.10;;
64140;SDS011;50436;50.618;7.932;2024-03-06T01:28:37;0.13;;;0.13;;
64140;SDS011;50436;50.618;7.932;2024-03-06T01:31:26;0.10;;;0.10;;
64140;SDS011;50436;50.618;7.932;2024-03-06T01:34:12;0.10;;;0.10;;
64140;SDS011;50436;50.618;7.932;2024-03-06T01:36:58;0.10;;;0.10;;
64140;SDS011;50436;50.618;7.932;2024-03-06T01:39:44;0.20;;;0.20;;
64140;SDS011;50436;50.618;7.932;2024-03-06T01:42:30;0.20;;;0.20;;
64140;SDS011;50436;50.618;7.932;2024-03-06T01:45:16;0.20;;;0.20;;
64140;SDS011;50436;50.618;7.932;2024-03-06T01:48:02;0.10;;;0.10;;
64140;SDS011;50436;50.618;7.932;2024-03-06T01:50:48;0.20;;;0.20;;
64140;SDS011;50436;50.618;7.932;2024-03-06T01:53:34;0.10;;;0.10;;
64140;SDS011;50436;50.618;7.932;2024-03-06T01:56:21;0.10;;;0.10;;
64140;SDS011;50436;50.618;7.932;2024-03-06T01:59:07;0.10;;;0.10;;
64140;SDS011;50436;50.618;7.932;2024-03-06T02:01:53;0.10;;;0.10;;
64140;SDS011;50436;50.618;7.932;2024-03-06T02:04:39;0.10;;;0.10;;
64140;SDS011;50436;50.618;7.932;2024-03-06T02:07:25;0.10;;;0.10;;
64140;SDS011;50436;50.618;7.932;2024-03-06T02:10:14;0.10;;;0.10;;
64140;SDS011;50436;50.618;7.932;2024-03-06T02:13:00;0.10;;;0.10;;
64140;SDS011;50436;50.618;7.932;2024-03-06T02:15:46;0.10;;;0.10;;
64140;SDS011;50436;50.618;7.932;2024-03-06T02:18:32;0.10;;;0.10;;
64140;SDS011;50436;50.618;7.932;2024-03-06T02:21:18;0.20;;;0.20;;
64140;SDS011;50436;50.618;7.932;2024-03-06T02:24:04;0.10;;;0.10;;
64140;SDS011;50436;50.618;7.932;2024-03-06T02:26:50;0.20;;;0.20;;
64140;SDS011;50436;50.618;7.932;2024-03-06T02:29:36;0.10;;;0.10;;
64140;SDS011;50436;50.618;7.932;2024-03-06T02:32:23;0.10;;;0.10;;
64140;SDS011;50436;50.618;7.932;2024-03-06T02:35:09;0.13;;;0.13;;
64140;SDS011;50436;50.618;7.932;2024-03-06T02:37:55;0.77;;;0.47;;
64140;SDS011;50436;50.618;7.932;2024-03-06T02:40:44;0.28;;;0.20;;
64140;SDS011;50436;50.618;7.932;2024-03-06T02:43:32;0.40;;;0.32;;
64140;SDS011;50436;50.618;7.932;2024-03-06T02:46:18;1.17;;;0.60;;
64140;SDS011;50436;50.618;7.932;2024-03-06T02:49:04;0.73;;;0.40;;
64140;SDS011;50436;50.618;7.932;2024-03-06T02:51:53;0.82;;;0.50;;
64140;SDS011;50436;50.618;7.932;2024-03-06T02:54:42;0.50;;;0.30;;
64140;SDS011;50436;50.618;7.932;2024-03-06T02:57:28;0.38;;;0.30;;
64140;SDS011;50436;50.618;7.932;2024-03-06T03:00:17;0.68;;;0.40;;
64140;SDS011;50436;50.618;7.932;2024-03-06T03:03:05;0.32;;;0.22;;
64140;SDS011;50436;50.618;7.932;2024-03-06T03:05:51;0.70;;;0.50;;
64140;SDS011;50436;50.618;7.932;2024-03-06T03:08:38;0.50;;;0.40;;
64140;SDS011;50436;50.618;7.932;2024-03-06T03:11:24;0.82;;;0.50;;
64140;SDS011;50436;50.618;7.932;2024-03-06T03:14:10;0.28;;;0.20;;
64140;SDS011;50436;50.618;7.932;2024-03-06T03:17:00;0.30;;;0.30;;
64140;SDS011;50436;50.618;7.932;2024-03-06T03:19:46;0.20;;;0.20;;
64140;SDS011;50436;50.618;7.932;2024-03-06T03:22:32;0.22;;;0.20;;
64140;SDS011;50436;50.618;7.932;2024-03-06T03:25:18;0.35;;;0.30;;
64140;SDS011;50436;50.618;7.932;2024-03-06T03:28:04;0.60;;;0.40;;
64140;SDS011;50436;50.618;7.932;2024-03-06T03:30:50;0.30;;;0.30;;
64140;SDS011;50436;50.618;7.932;2024-03-06T03:33:38;0.43;;;0.32;;
64140;SDS011;50436;50.618;7.932;2024-03-06T03:36:24;1.15;;;0.65;;
64140;SDS011;50436;50.618;7.932;2024-03-06T03:39:10;0.52;;;0.38;;
64140;SDS011;50436;50.618;7.932;2024-03-06T03:42:01;1.00;;;0.50;;
64140;SDS011;50436;50.618;7.932;2024-03-06T03:44:47;0.43;;;0.30;;
64140;SDS011;50436;50.618;7.932;2024-03-06T03:47:33;0.65;;;0.40;;
64140;SDS011;50436;50.618;7.932;2024-03-06T03:50:19;1.10;;;0.60;;
64140;SDS011;50436;50.618;7.932;2024-03-06T03:53:05;0.88;;;0.47;;
64140;SDS011;50436;50.618;7.932;2024-03-06T03:55:51;0.85;;;0.55;;
64140;SDS011;50436;50.618;7.932;2024-03-06T03:58:37;1.13;;;0.63;;
64140;SDS011;50436;50.618;7.932;2024-03-06T04:01:23;1.33;;;0.70;;
64140;SDS011;50436;50.618;7.932;2024-03-06T04:04:10;1.10;;;0.60;;
64140;SDS011;50436;50.618;7.932;2024-03-06T04:06:56;1.27;;;0.85;;
64140;SDS011;50436;50.618;7.932;2024-03-06T04:09:45;1.27;;;0.77;;
64140;SDS011;50436;50.618;7.932;2024-03-06T04:12:30;1.02;;;0.60;;
64140;SDS011;50436;50.618;7.932;2024-03-06T04:15:16;0.80;;;0.43;;
64140;SDS011;50436;50.618;7.932;2024-03-06T04:18:03;1.02;;;0.63;;
64140;SDS011;50436;50.618;7.932;2024-03-06T04:20:49;0.75;;;0.47;;
64140;SDS011;50436;50.618;7.932;2024-03-06T04:23:34;0.65;;;0.50;;
64140;SDS011;50436;50.618;7.932;2024-03-06T04:26:21;1.67;;;0.98;;
64140;SDS011;50436;50.618;7.932;2024-03-06T04:29:06;1.40;;;0.80;;
64140;SDS011;50436;50.618;7.932;2024-03-06T04:31:52;1.67;;;1.00;;
64140;SDS011;50436;50.618;7.932;2024-03-06T04:34:38;1.40;;;0.70;;
64140;SDS011;50436;50.618;7.932;2024-03-06T04:37:24;1.25;;;0.70;;
64140;SDS011;50436;50.618;7.932;2024-03-06T04:40:12;1.20;;;0.70;;
64140;SDS011;50436;50.618;7.932;2024-03-06T04:43:01;1.60;;;0.90;;
64140;SDS011;50436;50.618;7.932;2024-03-06T04:45:47;1.70;;;0.93;;
64140;SDS011;50436;50.618;7.932;2024-03-06T04:48:32;1.30;;;0.60;;
64140;SDS011;50436;50.618;7.932;2024-03-06T04:51:18;1.20;;;0.82;;
64140;SDS011;50436;50.618;7.932;2024-03-06T04:54:07;1.35;;;0.75;;
64140;SDS011;50436;50.618;7.932;2024-03-06T04:56:54;1.60;;;0.90;;
64140;SDS011;50436;50.618;7.932;2024-03-06T04:59:40;1.00;;;0.60;;
64140;SDS011;50436;50.618;7.932;2024-03-06T05:02:26;1.00;;;0.60;;
64140;SDS011;50436;50.618;7.932;2024-03-06T05:05:12;1.17;;;0.63;;
64140;SDS011;50436;50.618;7.932;2024-03-06T05:07:58;1.00;;;0.57;;
64140;SDS011;50436;50.618;7.932;2024-03-06T05:10:46;0.20;;;0.20;;
64140;SDS011;50436;50.618;7.932;2024-03-06T05:13:32;0.20;;;0.20;;
64140;SDS011;50436;50.618;7.932;2024-03-06T05:16:18;0.30;;;0.30;;
64140;SDS011;50436;50.618;7.932;2024-03-06T05:19:04;0.20;;;0.20;;
64140;SDS011;50436;50.618;7.932;2024-03-06T05:21:50;0.28;;;0.20;;
64140;SDS011;50436;50.618;7.932;2024-03-06T05:24:35;0.17;;;0.17;;
64140;SDS011;50436;50.618;7.932;2024-03-06T05:27:21;1.20;;;0.65;;
64140;SDS011;50436;50.618;7.932;2024-03-06T05:30:07;1.45;;;0.80;;
64140;SDS011;50436;50.618;7.932;2024-03-06T05:32:54;0.90;;;0.55;;
64140;SDS011;50436;50.618;7.932;2024-03-06T05:35:40;1.05;;;0.57;;
64140;SDS011;50436;50.618;7.932;2024-03-06T05:38:26;1.23;;;0.60;;
64140;SDS011;50436;50.618;7.932;2024-03-06T05:41:12;1.77;;;0.98;;
64140;SDS011;50436;50.618;7.932;2024-03-06T05:44:03;1.75;;;1.15;;
64140;SDS011;50436;50.618;7.932;2024-03-06T05:46:49;1.60;;;1.10;;
64140;SDS011;50436;50.618;7.932;2024-03-06T05:49:35;2.05;;;1.30;;
64140;SDS011;50436;50.618;7.932;2024-03-06T05:52:21;0.93;;;0.60;;
64140;SDS011;50436;50.618;7.932;2024-03-06T05:55:07;1.25;;;0.75;;
64140;SDS011;50436;50.618;7.932;2024-03-06T05:57:53;1.52;;;0.77;;
64140;SDS011;50436;50.618;7.932;2024-03-06T06:00:38;1.10;;;0.65;;
64140;SDS011;50436;50.618;7.932;2024-03-06T06:03:24;1.20;;;0.80;;
64140;SDS011;50436;50.618;7.932;2024-03-06T06:06:10;0.90;;;0.50;;
64140;SDS011;50436;50.618;7.932;2024-03-06T06:08:56;0.32;;;0.20;;
64140;SDS011;50436;50.618;7.932;2024-03-06T06:11:42;0.30;;;0.30;;
64140;SDS011;50436;50.618;7.932;2024-03-06T06:14:29;0.60;;;0.40;;
64140;SDS011;50436;50.618;7.932;2024-03-06T06:17:15;0.65;;;0.43;;
64140;SDS011;50436;50.618;7.932;2024-03-06T06:20:01;1.08;;;0.60;;
64140;SDS011;50436;50.618;7.932;2024-03-06T06:22:47;0.63;;;0.40;;
64140;SDS011;50436;50.618;7.932;2024-03-06T06:25:33;0.73;;;0.45;;
64140;SDS011;50436;50.618;7.932;2024-03-06T06:28:19;0.55;;;0.32;;
64140;SDS011;50436;50.618;7.932;2024-03-06T06:31:04;0.20;;;0.20;;
64140;SDS011;50436;50.618;7.932;2024-03-06T06:33:50;0.20;;;0.20;;
64140;SDS011;50436;50.618;7.932;2024-03-06T06:36:37;0.10;;;0.10;;
64140;SDS011;50436;50.618;7.932;2024-03-06T06:39:26;0.10;;;0.10;;
64140;SDS011;50436;50.618;7.932;2024-03-06T06:42:14;0.10;;;0.10;;
64140;SDS011;50436;50.618;7.932;2024-03-06T06:45:00;0.10;;;0.10;;
64140;SDS011;50436;50.618;7.932;2024-03-06T06:47:47;0.20;;;0.20;;
64140;SDS011;50436;50.618;7.932;2024-03-06T06:50:33;0.10;;;0.10;;
64140;SDS011;50436;50.618;7.932;2024-03-06T06:53:19;0.10;;;0.10;;
64140;SDS011;50436;50.618;7.932;2024-03-06T06:56:05;0.10;;;0.10;;
64140;SDS011;50436;50.618;7.932;2024-03-06T06:58:51;0.10;;;0.10;;
64140;SDS011;50436;50.618;7.932;2024-03-06T07:01:37;0.10;;;0.10;;
64140;SDS011;50436;50.618;7.932;2024-03-06T07:04:23;0.10;;;0.10;;
64140;SDS011;50436;50.618;7.932;2024-03-06T07:07:10;0.10;;;0.10;;
64140;SDS011;50436;50.618;7.932;2024-03-06T07:09:56;0.20;;;0.20;;
64140;SDS011;50436;50.618;7.932;2024-03-06T07:12:42;0.10;;;0.10;;
64140;SDS011;50436;50.618;7.932;2024-03-06T07:15:28;0.10;;;0.10;;
64140;SDS011;50436;50.618;7.932;2024-03-06T07:18:14;0.10;;;0.10;;
64140;SDS011;50436;50.618;7.932;2024-03-06T07:20:59;0.13;;;0.13;;
64140;SDS011;50436;50.618;7.932;2024-03-06T07:23:46;0.20;;;0.20;;
64140;SDS011;50436;50.618;7.932;2024-03-06T07:26:32;0.10;;;0.10;;
64140;SDS011;50436;50.618;7.932;2024-03-06T07:29:18;0.10;;;0.10;;
64140;SDS011;50436;50.618;7.932;2024-03-06T07:32:04;0.10;;;0.10;;
64140;SDS011;50436;50.618;7.932;2024-03-06T07:34:53;0.10;;;0.10;;
64140;SDS011;50436;50.618;7.932;2024-03-06T07:37:39;0.10;;;0.10;;
64140;SDS011;50436;50.618;7.932;2024-03-06T07:40:25;0.20;;;0.20;;
64140;SDS011;50436;50.618;7.932;2024-03-06T07:43:11;0.20;;;0.20;;
64140;SDS011;50436;50.618;7.932;2024-03-06T07:45:57;0.15;;;0.15;;
64140;SDS011;50436;50.618;7.932;2024-03-06T07:48:43;0.15;;;0.15;;
64140;SDS011;50436;50.618;7.932;2024-03-06T07:51:32;0.20;;;0.20;;
64140;SDS011;50436;50.618;7.932;2024-03-06T07:54:18;0.25;;;0.20;;
64140;SDS011;50436;50.618;7.932;2024-03-06T07:57:04;0.65;;;0.40;;
64140;SDS011;50436;50.618;7.932;2024-03-06T07:59:50;0.80;;;0.40;;
64140;SDS011;50436;50.618;7.932;2024-03-06T08:02:37;0.88;;;0.50;;
64140;SDS011;50436;50.618;7.932;2024-03-06T08:05:24;0.73;;;0.40;;
64140;SDS011;50436;50.618;7.932;2024-03-06T08:08:10;0.20;;;0.20;;
64140;SDS011;50436;50.618;7.932;2024-03-06T08:10:56;0.10;;;0.10;;
64140;SDS011;50436;50.618;7.932;2024-03-06T08:13:43;0.20;;;0.20;;
64140;SDS011;50436;50.618;7.932;2024-03-06T08:16:29;0.20;;;0.20;;
64140;SDS011;50436;50.618;7.932;2024-03-06T08:19:15;0.20;;;0.20;;
64140;SDS011;50436;50.618;7.932;2024-03-06T08:22:01;0.20;;;0.20;;
64140;SDS011;50436;50.618;7.932;2024-03-06T08:24:47;0.38;;;0.32;;
64140;SDS011;50436;50.618;7.932;2024-03-06T08:27:34;0.60;;;0.40;;
64140;SDS011;50436;50.618;7.932;2024-03-06T08:30:21;0.43;;;0.30;;
64140;SDS011;50436;50.618;7.932;2024-03-06T08:33:07;0.30;;;0.30;;
64140;SDS011;50436;50.618;7.932;2024-03-06T08:35:53;0.57;;;0.40;;
64140;SDS011;50436;50.618;7.932;2024-03-06T08:38:39;1.17;;;0.60;;
64140;SDS011;50436;50.618;7.932;2024-03-06T08:41:26;1.40;;;0.70;;
64140;SDS011;50436;50.618;7.932;2024-03-06T08:44:12;0.90;;;0.50;;
64140;SDS011;50436;50.618;7.932;2024-03-06T08:46:58;0.80;;;0.50;;
64140;SDS011;50436;50.618;7.932;2024-03-06T08:49:44;0.95;;;0.55;;
64140;SDS011;50436;50.618;7.932;2024-03-06T08:52:30;0.30;;;0.30;;
64140;SDS011;50436;50.618;7.932;2024-03-06T08:55:17;0.38;;;0.30;;
64140;SDS011;50436;50.618;7.932;2024-03-06T08:58:03;0.20;;;0.20;;
64140;SDS011;50436;50.618;7.932;2024-03-06T09:00:49;0.20;;;0.20;;
64140;SDS011;50436;50.618;7.932;2024-03-06T09:03:35;0.20;;;0.20;;
64140;SDS011;50436;50.618;7.932;2024-03-06T09:06:21;0.17;;;0.17;;
64140;SDS011;50436;50.618;7.932;2024-03-06T09:09:07;0.20;;;0.20;;
64140;SDS011;50436;50.618;7.932;2024-03-06T09:11:53;0.10;;;0.10;;
64140;SDS011;50436;50.618;7.932;2024-03-06T09:14:39;0.20;;;0.20;;
64140;SDS011;50436;50.618;7.932;2024-03-06T09:17:26;0.10;;;0.10;;
64140;SDS011;50436;50.618;7.932;2024-03-06T09:20:12;0.20;;;0.20;;
64140;SDS011;50436;50.618;7.932;2024-03-06T09:22:58;0.10;;;0.10;;
64140;SDS011;50436;50.618;7.932;2024-03-06T09:25:45;0.20;;;0.20;;
64140;SDS011;50436;50.618;7.932;2024-03-06T09:28:31;0.10;;;0.10;;
64140;SDS011;50436;50.618;7.932;2024-03-06T09:31:17;0.15;;;0.15;;
64140;SDS011;50436;50.618;7.932;2024-03-06T09:34:03;0.10;;;0.10;;
64140;SDS011;50436;50.618;7.932;2024-03-06T09:36:49;0.10;;;0.10;;
64140;SDS011;50436;50.618;7.932;2024-03-06T09:39:35;0.10;;;0.10;;
64140;SDS011;50436;50.618;7.932;2024-03-06T09:42:21;0.20;;;0.20;;
64140;SDS011;50436;50.618;7.932;2024-03-06T09:45:08;0.10;;;0.10;;
64140;SDS011;50436;50.618;7.932;2024-03-06T09:47:54;0.10;;;0.10;;
64140;SDS011;50436;50.618;7.932;2024-03-06T09:50:41;0.10;;;0.10;;
64140;SDS011;50436;50.618;7.932;2024-03-06T09:53:30;0.20;;;0.20;;
64140;SDS011;50436;50.618;7.932;2024-03-06T09:56:16;0.15;;;0.15;;
64140;SDS011;50436;50.618;7.932;2024-03-06T09:59:04;0.10;;;0.10;;
64140;SDS011;50436;50.618;7.932;2024-03-06T10:01:54;0.20;;;0.20;;
64140;SDS011;50436;50.618;7.932;2024-03-06T10:04:41;0.20;;;0.20;;
64140;SDS011;50436;50.618;7.932;2024-03-06T10:07:27;0.10;;;0.10;;
64140;SDS011;50436;50.618;7.932;2024-03-06T10:10:13;0.20;;;0.20;;
64140;SDS011;50436;50.618;7.932;2024-03-06T10:13:01;0.10;;;0.10;;
64140;SDS011;50436;50.618;7.932;2024-03-06T10:18:48;0.10;;;0.10;;
64140;SDS011;50436;50.618;7.932;2024-03-06T10:21:34;0.10;;;0.10;;
64140;SDS011;50436;50.618;7.932;2024-03-06T10:24:21;0.10;;;0.10;;
64140;SDS011;50436;50.618;7.932;2024-03-06T10:27:13;0.20;;;0.20;;
64140;SDS011;50436;50.618;7.932;2024-03-06T10:30:03;0.10;;;0.10;;
64140;SDS011;50436;50.618;7.932;2024-03-06T10:32:50;0.10;;;0.10;;
64140;SDS011;50436;50.618;7.932;2024-03-06T10:35:36;0.13;;;0.13;;
64140;SDS011;50436;50.618;7.932;2024-03-06T10:38:23;0.13;;;0.13;;
64140;SDS011;50436;50.618;7.932;2024-03-06T10:41:11;0.10;;;0.10;;
64140;SDS011;50436;50.618;7.932;2024-03-06T10:43:59;0.10;;;0.10;;
64140;SDS011;50436;50.618;7.932;2024-03-06T10:46:46;0.20;;;0.20;;
64140;SDS011;50436;50.618;7.932;2024-03-06T10:49:38;0.10;;;0.10;;
64140;SDS011;50436;50.618;7.932;2024-03-06T10:52:28;0.10;;;0.10;;
64140;SDS011;50436;50.618;7.932;2024-03-06T10:55:18;0.10;;;0.10;;
64140;SDS011;50436;50.618;7.932;2024-03-06T10:58:08;0.10;;;0.10;;
64140;SDS011;50436;50.618;7.932;2024-03-06T11:00:54;0.13;;;0.13;;
64140;SDS011;50436;50.618;7.932;2024-03-06T11:03:43;0.10;;;0.10;;
64140;SDS011;50436;50.618;7.932;2024-03-06T11:06:29;0.10;;;0.10;;
64140;SDS011;50436;50.618;7.932;2024-03-06T11:09:16;0.10;;;0.10;;
64140;SDS011;50436;50.618;7.932;2024-03-06T11:12:03;0.10;;;0.10;;
64140;SDS011;50436;50.618;7.932;2024-03-06T11:14:52;0.10;;;0.10;;
64140;SDS011;50436;50.618;7.932;2024-03-06T11:17:41;0.10;;;0.10;;
64140;SDS011;50436;50.618;7.932;2024-03-06T11:20:27;0.10;;;0.10;;
64140;SDS011;50436;50.618;7.932;2024-03-06T11:26:05;0.20;;;0.20;;
64140;SDS011;50436;50.618;7.932;2024-03-06T11:28:52;0.10;;;0.10;;
64140;SDS011;50436;50.618;7.932;2024-03-06T11:31:38;0.10;;;0.10;;
64140;SDS011;50436;50.618;7.932;2024-03-06T11:34:23;0.13;;;0.13;;
64140;SDS011;50436;50.618;7.932;2024-03-06T11:37:10;0.20;;;0.20;;
64140;SDS011;50436;50.618;7.932;2024-03-06T11:39:59;0.10;;;0.10;;
64140;SDS011;50436;50.618;7.932;2024-03-06T11:42:56;0.17;;;0.17;;
64140;SDS011;50436;50.618;7.932;2024-03-06T11:45:45;0.10;;;0.10;;
64140;SDS011;50436;50.618;7.932;2024-03-06T11:48:32;0.10;;;0.10;;
64140;SDS011;50436;50.618;7.932;2024-03-06T11:51:18;0.20;;;0.20;;
64140;SDS011;50436;50.618;7.932;2024-03-06T11:54:03;0.10;;;0.10;;
64140;SDS011;50436;50.618;7.932;2024-03-06T11:56:51;0.20;;;0.20;;
64140;SDS011;50436;50.618;7.932;2024-03-06T11:59:41;0.10;;;0.10;;
64140;SDS011;50436;50.618;7.932;2024-03-06T12:02:27;0.30;;;0.30;;
64140;SDS011;50436;50.618;7.932;2024-03-06T12:05:13;0.10;;;0.10;;
64140;SDS011;50436;50.618;7.932;2024-03-06T12:07:59;0.10;;;0.10;;
64140;SDS011;50436;50.618;7.932;2024-03-06T12:10:45;0.20;;;0.20;;
64140;SDS011;50436;50.618;7.932;2024-03-06T12:13:32;0.20;;;0.20;;
64140;SDS011;50436;50.618;7.932;2024-03-06T12:16:18;0.30;;;0.30;;
64140;SDS011;50436;50.618;7.932;2024-03-06T12:19:04;0.30;;;0.30;;
64140;SDS011;50436;50.618;7.932;2024-03-06T12:21:50;0.10;;;0.10;;
64140;SDS011;50436;50.618;7.932;2024-03-06T12:24:36;0.20;;;0.20;;
64140;SDS011;50436;50.618;7.932;2024-03-06T12:27:22;0.20;;;0.20;;
64140;SDS011;50436;50.618;7.932;2024-03-06T12:30:09;0.20;;;0.20;;
64140;SDS011;50436;50.618;7.932;2024-03-06T12:32:59;0.20;;;0.20;;
64140;SDS011;50436;50.618;7.932;2024-03-06T12:35:45;0.20;;;0.20;;
64140;SDS011;50436;50.618;7.932;2024-03-06T12:38:31;0.20;;;0.20;;
64140;SDS011;50436;50.618;7.932;2024-03-06T12:41:17;0.20;;;0.20;;
64140;SDS011;50436;50.618;7.932;2024-03-06T12:44:03;0.20;;;0.20;;
64140;SDS011;50436;50.618;7.932;2024-03-06T12:46:49;0.20;;;0.20;;
64140;SDS011;50436;50.618;7.932;2024-03-06T12:49:35;0.20;;;0.20;;
64140;SDS011;50436;50.618;7.932;2024-03-06T12:52:21;0.30;;;0.30;;
64140;SDS011;50436;50.618;7.932;2024-03-06T12:55:07;0.20;;;0.20;;
64140;SDS011;50436;50.618;7.932;2024-03-06T12:57:53;0.10;;;0.10;;
64140;SDS011;50436;50.618;7.932;2024-03-06T13:00:39;0.10;;;0.10;;
64140;SDS011;50436;50.618;7.932;2024-03-06T13:03:25;0.00;;;0.00;;
64140;SDS011;50436;50.618;7.932;2024-03-06T13:06:13;0.08;;;0.08;;
64140;SDS011;50436;50.618;7.932;2024-03-06T13:08:59;0.10;;;0.10;;
64140;SDS011;50436;50.618;7.932;2024-03-06T13:11:45;0.08;;;0.08;;
64140;SDS011;50436;50.618;7.932;2024-03-06T13:14:31;0.10;;;0.10;;
64140;SDS011;50436;50.618;7.932;2024-03-06T13:17:17;0.10;;;0.10;;
64140;SDS011;50436;50.618;7.932;2024-03-06T13:20:04;0.10;;;0.10;;
64140;SDS011;50436;50.618;7.932;2024-03-06T13:22:50;0.10;;;0.10;;
64140;SDS011;50436;50.618;7.932;2024-03-06T13:25:36;0.10;;;0.10;;
64140;SDS011;50436;50.618;7.932;2024-03-06T13:28:22;0.10;;;0.10;;
64140;SDS011;50436;50.618;7.932;2024-03-06T13:31:08;0.13;;;0.13;;
64140;SDS011;50436;50.618;7.932;2024-03-06T13:33:54;0.00;;;0.00;;
64140;SDS011;50436;50.618;7.932;2024-03-06T13:36:40;0.10;;;0.10;;
64140;SDS011;50436;50.618;7.932;2024-03-06T13:39:27;0.10;;;0.10;;
64140;SDS011;50436;50.618;7.932;2024-03-06T13:42:12;0.03;;;0.03;;
64140;SDS011;50436;50.618;7.932;2024-03-06T13:44:58;0.10;;;0.10;;
64140;SDS011;50436;50.618;7.932;2024-03-06T13:47:44;0.10;;;0.10;;
64140;SDS011;50436;50.618;7.932;2024-03-06T13:50:30;0.17;;;0.17;;
64140;SDS011;50436;50.618;7.932;2024-03-06T13:53:16;0.10;;;0.10;;
64140;SDS011;50436;50.618;7.932;2024-03-06T13:56:02;0.10;;;0.10;;
64140;SDS011;50436;50.618;7.932;2024-03-06T13:58:48;0.10;;;0.10;;
64140;SDS011;50436;50.618;7.932;2024-03-06T14:01:36;0.10;;;0.10;;
64140;SDS011;50436;50.618;7.932;2024-03-06T14:04:22;0.20;;;0.20;;
64140;SDS011;50436;50.618;7.932;2024-03-06T14:07:08;0.20;;;0.20;;
64140;SDS011;50436;50.618;7.932;2024-03-06T14:09:54;0.20;;;0.20;;
64140;SDS011;50436;50.618;7.932;2024-03-06T14:12:42;0.10;;;0.10;;
64140;SDS011;50436;50.618;7.932;2024-03-06T14:15:28;0.10;;;0.10;;
64140;SDS011;50436;50.618;7.932;2024-03-06T14:18:14;0.10;;;0.10;;
64140;SDS011;50436;50.618;7.932;2024-03-06T14:21:00;0.10;;;0.10;;
64140;SDS011;50436;50.618;7.932;2024-03-06T14:23:46;0.10;;;0.10;;
64140;SDS011;50436;50.618;7.932;2024-03-06T14:26:32;0.10;;;0.10;;
64140;SDS011;50436;50.618;7.932;2024-03-06T14:29:18;0.10;;;0.10;;
64140;SDS011;50436;50.618;7.932;2024-03-06T14:32:05;0.20;;;0.20;;
64140;SDS011;50436;50.618;7.932;2024-03-06T14:34:51;0.10;;;0.10;;
64140;SDS011;50436;50.618;7.932;2024-03-06T14:37:37;0.10;;;0.10;;
64140;SDS011;50436;50.618;7.932;2024-03-06T14:40:24;0.20;;;0.20;;
64140;SDS011;50436;50.618;7.932;2024-03-06T14:43:10;0.10;;;0.10;;
64140;SDS011;50436;50.618;7.932;2024-03-06T14:45:56;0.10;;;0.10;;
64140;SDS011;50436;50.618;7.932;2024-03-06T14:48:41;0.10;;;0.10;;
64140;SDS011;50436;50.618;7.932;2024-03-06T14:51:28;0.10;;;0.10;;
64140;SDS011;50436;50.618;7.932;2024-03-06T14:54:14;0.10;;;0.10;;
64140;SDS011;50436;50.618;7.932;2024-03-06T14:57:00;0.10;;;0.10;;
64140;SDS011;50436;50.618;7.932;2024-03-06T14:59:47;0.10;;;0.10;;
64140;SDS011;50436;50.618;7.932;2024-03-06T15:02:33;0.10;;;0.10;;
64140;SDS011;50436;50.618;7.932;2024-03-06T15:05:19;0.10;;;0.10;;
64140;SDS011;50436;50.618;7.932;2024-03-06T15:08:04;0.17;;;0.10;;
64140;SDS011;50436;50.618;7.932;2024-03-06T15:10:51;0.10;;;0.10;;
64140;SDS011;50436;50.618;7.932;2024-03-06T15:13:39;0.20;;;0.20;;
64140;SDS011;50436;50.618;7.932;2024-03-06T15:16:25;0.10;;;0.10;;
64140;SDS011;50436;50.618;7.932;2024-03-06T15:19:11;0.10;;;0.10;;
64140;SDS011;50436;50.618;7.932;2024-03-06T15:21:57;0.10;;;0.10;;
64140;SDS011;50436;50.618;7.932;2024-03-06T15:27:37;0.10;;;0.10;;
64140;SDS011;50436;50.618;7.932;2024-03-06T15:30:23;0.10;;;0.10;;
64140;SDS011;50436;50.618;7.932;2024-03-06T15:33:10;0.10;;;0.10;;
64140;SDS011;50436;50.618;7.932;2024-03-06T15:35:56;0.10;;;0.10;;
64140;SDS011;50436;50.618;7.932;2024-03-06T15:38:48;0.20;;;0.20;;
64140;SDS011;50436;50.618;7.932;2024-03-06T15:41:34;0.10;;;0.10;;
64140;SDS011;50436;50.618;7.932;2024-03-06T15:44:19;0.10;;;0.10;;
64140;SDS011;50436;50.618;7.932;2024-03-06T15:47:05;0.10;;;0.10;;
64140;SDS011;50436;50.618;7.932;2024-03-06T15:49:51;0.10;;;0.10;;
64140;SDS011;50436;50.618;7.932;2024-03-06T15:52:38;0.10;;;0.10;;
64140;SDS011;50436;50.618;7.932;2024-03-06T15:55:27;0.10;;;0.10;;
64140;SDS011;50436;50.618;7.932;2024-03-06T15:58:13;0.10;;;0.10;;
64140;SDS011;50436;50.618;7.932;2024-03-06T16:00:59;0.10;;;0.10;;
64140;SDS011;50436;50.618;7.932;2024-03-06T16:03:46;0.10;;;0.10;;
64140;SDS011;50436;50.618;7.932;2024-03-06T16:06:32;0.10;;;0.10;;
64140;SDS011;50436;50.618;7.932;2024-03-06T16:09:20;0.10;;;0.10;;
64140;SDS011;50436;50.618;7.932;2024-03-06T16:12:06;0.20;;;0.20;;
64140;SDS011;50436;50.618;7.932;2024-03-06T16:14:52;0.10;;;0.10;;
64140;SDS011;50436;50.618;7.932;2024-03-06T16:17:38;0.10;;;0.10;;
64140;SDS011;50436;50.618;7.932;2024-03-06T16:20:24;0.13;;;0.13;;
64140;SDS011;50436;50.618;7.932;2024-03-06T16:23:10;0.10;;;0.10;;
64140;SDS011;50436;50.618;7.932;2024-03-06T16:25:56;0.20;;;0.20;;
64140;SDS011;50436;50.618;7.932;2024-03-06T16:28:42;0.10;;;0.10;;
64140;SDS011;50436;50.618;7.932;2024-03-06T16:31:28;0.10;;;0.10;;
64140;SDS011;50436;50.618;7.932;2024-03-06T16:34:14;0.10;;;0.10;;
64140;SDS011;50436;50.618;7.932;2024-03-06T16:37:02;0.10;;;0.10;;
64140;SDS011;50436;50.618;7.932;2024-03-06T16:39:48;0.10;;;0.10;;
64140;SDS011;50436;50.618;7.932;2024-03-06T16:42:35;0.10;;;0.10;;
64140;SDS011;50436;50.618;7.932;2024-03-06T16:45:21;0.10;;;0.10;;
64140;SDS011;50436;50.618;7.932;2024-03-06T16:48:09;0.10;;;0.10;;
64140;SDS011;50436;50.618;7.932;2024-03-06T16:50:55;0.10;;;0.10;;